sensor_id;sensor_type;location;lat;lon;timestamp;pressure;altitude;pressure_sealevel;temperature;humidity
66090;BME280;53113;45.602;11.904;2023-01-01T00:01:41;102942.28;;;10.57;72.40
66090;BME280;53113;45.602;11.904;2023-01-01T00:04:11;102941.23;;;10.61;72.48
66090;BME280;53113;45.602;11.904;2023-01-01T00:06:37;102941.49;;;10.63;72.51
66090;BME280;53113;45.602;11.904;2023-01-01T00:09:03;102942.45;;;10.66;72.54
66090;BME280;53113;45.602;11.904;2023-01-01T00:11:47;102934.66;;;10.66;72.38
66090;BME280;53113;45.602;11.904;2023-01-01T00:14:13;102933.75;;;10.67;72.53
66090;BME280;53113;45.602;11.904;2023-01-01T00:16:39;102934.06;;;10.68;72.50
66090;BME280;53113;45.602;11.904;2023-01-01T00:19:05;102930.39;;;10.67;72.42
66090;BME280;53113;45.602;11.904;2023-01-01T00:21:31;102931.30;;;10.66;72.47
66090;BME280;53113;45.602;11.904;2023-01-01T00:23:57;102927.94;;;10.66;72.46
66090;BME280;53113;45.602;11.904;2023-01-01T00:26:24;102932.41;;;10.69;72.45
66090;BME280;53113;45.602;11.904;2023-01-01T00:28:49;102930.52;;;10.72;72.32
66090;BME280;53113;45.602;11.904;2023-01-01T00:31:17;102934.66;;;10.75;72.23
66090;BME280;53113;45.602;11.904;2023-01-01T00:33:45;102932.40;;;10.74;72.23
66090;BME280;53113;45.602;11.904;2023-01-01T00:37:52;102929.44;;;10.73;72.13
66090;BME280;53113;45.602;11.904;2023-01-01T00:40:19;102925.37;;;10.68;72.13
66090;BME280;53113;45.602;11.904;2023-01-01T00:42:48;102924.30;;;10.64;72.17
66090;BME280;53113;45.602;11.904;2023-01-01T00:45:17;102925.73;;;10.63;72.19
66090;BME280;53113;45.602;11.904;2023-01-01T00:47:48;102922.14;;;10.60;72.29
66090;BME280;53113;45.602;11.904;2023-01-01T00:50:14;102918.95;;;10.60;72.31
66090;BME280;53113;45.602;11.904;2023-01-01T00:52:46;102916.20;;;10.62;72.33
66090;BME280;53113;45.602;11.904;2023-01-01T00:55:13;102917.36;;;10.64;72.41
66090;BME280;53113;45.602;11.904;2023-01-01T00:57:40;102919.93;;;10.67;72.36
66090;BME280;53113;45.602;11.904;2023-01-01T01:00:06;102922.61;;;10.67;72.38
66090;BME280;53113;45.602;11.904;2023-01-01T01:02:33;102921.93;;;10.66;72.61
66090;BME280;53113;45.602;11.904;2023-01-01T01:04:58;102921.23;;;10.65;72.51
66090;BME280;53113;45.602;11.904;2023-01-01T01:07:25;102922.42;;;10.62;72.55
66090;BME280;53113;45.602;11.904;2023-01-01T01:09:53;102926.73;;;10.60;72.55
66090;BME280;53113;45.602;11.904;2023-01-01T01:12:20;102925.52;;;10.59;72.47
66090;BME280;53113;45.602;11.904;2023-01-01T01:14:46;102921.77;;;10.61;72.47
66090;BME280;53113;45.602;11.904;2023-01-01T01:17:11;102914.65;;;10.61;72.42
66090;BME280;53113;45.602;11.904;2023-01-01T01:19:37;102914.67;;;10.61;72.40
66090;BME280;53113;45.602;11.904;2023-01-01T01:22:03;102916.72;;;10.58;72.47
66090;BME280;53113;45.602;11.904;2023-01-01T01:24:30;102916.23;;;10.58;72.54
66090;BME280;53113;45.602;11.904;2023-01-01T01:27:12;102916.64;;;10.56;72.54
66090;BME280;53113;45.602;11.904;2023-01-01T01:29:37;102922.01;;;10.55;72.71
66090;BME280;53113;45.602;11.904;2023-01-01T01:32:10;102913.35;;;10.54;72.63
66090;BME280;53113;45.602;11.904;2023-01-01T01:34:41;102913.71;;;10.58;72.70
66090;BME280;53113;45.602;11.904;2023-01-01T01:37:07;102910.91;;;10.57;72.65
66090;BME280;53113;45.602;11.904;2023-01-01T01:39:32;102913.96;;;10.60;72.61
66090;BME280;53113;45.602;11.904;2023-01-01T01:41:58;102919.27;;;10.60;72.66
66090;BME280;53113;45.602;11.904;2023-01-01T01:47:52;102916.83;;;10.60;72.70
66090;BME280;53113;45.602;11.904;2023-01-01T01:53:16;102918.93;;;10.60;72.85
66090;BME280;53113;45.602;11.904;2023-01-01T01:55:50;102918.83;;;10.63;72.84
66090;BME280;53113;45.602;11.904;2023-01-01T01:58:16;102923.86;;;10.66;72.82
66090;BME280;53113;45.602;11.904;2023-01-01T02:00:43;102925.05;;;10.67;72.82
66090;BME280;53113;45.602;11.904;2023-01-01T02:05:48;102920.09;;;10.67;72.86
66090;BME280;53113;45.602;11.904;2023-01-01T02:08:15;102922.95;;;10.67;72.89
66090;BME280;53113;45.602;11.904;2023-01-01T02:10:42;102925.12;;;10.66;72.82
66090;BME280;53113;45.602;11.904;2023-01-01T02:13:08;102922.00;;;10.64;72.90
66090;BME280;53113;45.602;11.904;2023-01-01T02:15:58;102926.98;;;10.63;72.82
66090;BME280;53113;45.602;11.904;2023-01-01T02:21:19;102924.68;;;10.68;72.93
66090;BME280;53113;45.602;11.904;2023-01-01T02:23:54;102923.02;;;10.69;72.90
66090;BME280;53113;45.602;11.904;2023-01-01T02:32:07;102922.91;;;10.68;72.88
66090;BME280;53113;45.602;11.904;2023-01-01T02:34:39;102914.50;;;10.65;72.95
66090;BME280;53113;45.602;11.904;2023-01-01T02:37:09;102916.11;;;10.65;73.05
66090;BME280;53113;45.602;11.904;2023-01-01T02:39:41;102912.67;;;10.62;72.98
66090;BME280;53113;45.602;11.904;2023-01-01T02:42:09;102915.48;;;10.62;72.98
66090;BME280;53113;45.602;11.904;2023-01-01T02:44:39;102915.77;;;10.64;72.90
66090;BME280;53113;45.602;11.904;2023-01-01T02:47:09;102914.25;;;10.67;72.87
66090;BME280;53113;45.602;11.904;2023-01-01T02:49:41;102912.78;;;10.68;72.93
66090;BME280;53113;45.602;11.904;2023-01-01T02:58:33;102917.95;;;10.68;72.94
66090;BME280;53113;45.602;11.904;2023-01-01T03:01:33;102913.21;;;10.67;72.95
66090;BME280;53113;45.602;11.904;2023-01-01T03:04:10;102909.36;;;10.69;73.04
66090;BME280;53113;45.602;11.904;2023-01-01T03:06:58;102903.67;;;10.74;73.02
66090;BME280;53113;45.602;11.904;2023-01-01T03:09:42;102898.91;;;10.78;72.95
66090;BME280;53113;45.602;11.904;2023-01-01T03:12:34;102894.54;;;10.80;72.90
66090;BME280;53113;45.602;11.904;2023-01-01T03:18:24;102899.63;;;10.82;72.87
66090;BME280;53113;45.602;11.904;2023-01-01T03:20:52;102904.30;;;10.80;72.88
66090;BME280;53113;45.602;11.904;2023-01-01T03:23:25;102909.64;;;10.80;72.83
66090;BME280;53113;45.602;11.904;2023-01-01T03:25:56;102901.04;;;10.78;72.75
66090;BME280;53113;45.602;11.904;2023-01-01T03:28:29;102891.63;;;10.78;72.83
66090;BME280;53113;45.602;11.904;2023-01-01T03:30:58;102884.63;;;10.81;72.87
66090;BME280;53113;45.602;11.904;2023-01-01T03:33:37;102883.98;;;10.83;72.70
66090;BME280;53113;45.602;11.904;2023-01-01T03:36:25;102891.24;;;10.83;72.76
66090;BME280;53113;45.602;11.904;2023-01-01T03:38:57;102887.02;;;10.82;72.68
66090;BME280;53113;45.602;11.904;2023-01-01T03:41:33;102889.88;;;10.82;72.74
66090;BME280;53113;45.602;11.904;2023-01-01T03:44:46;102887.64;;;10.80;72.74
66090;BME280;53113;45.602;11.904;2023-01-01T03:47:14;102888.23;;;10.79;72.81
66090;BME280;53113;45.602;11.904;2023-01-01T03:49:41;102889.19;;;10.77;72.78
66090;BME280;53113;45.602;11.904;2023-01-01T03:57:43;102876.88;;;10.79;72.70
66090;BME280;53113;45.602;11.904;2023-01-01T04:00:12;102874.20;;;10.80;72.72
66090;BME280;53113;45.602;11.904;2023-01-01T04:03:04;102865.54;;;10.79;72.73
66090;BME280;53113;45.602;11.904;2023-01-01T04:05:34;102869.30;;;10.78;72.84
66090;BME280;53113;45.602;11.904;2023-01-01T04:08:00;102873.43;;;10.77;72.82
66090;BME280;53113;45.602;11.904;2023-01-01T04:10:30;102870.95;;;10.77;72.88
66090;BME280;53113;45.602;11.904;2023-01-01T04:12:57;102862.98;;;10.73;72.84
66090;BME280;53113;45.602;11.904;2023-01-01T04:15:25;102859.23;;;10.74;72.96
66090;BME280;53113;45.602;11.904;2023-01-01T04:17:52;102855.02;;;10.77;72.93
66090;BME280;53113;45.602;11.904;2023-01-01T04:20:20;102860.20;;;10.80;72.92
66090;BME280;53113;45.602;11.904;2023-01-01T04:22:46;102856.04;;;10.82;72.89
66090;BME280;53113;45.602;11.904;2023-01-01T04:25:11;102860.98;;;10.82;72.97
66090;BME280;53113;45.602;11.904;2023-01-01T04:27:38;102861.69;;;10.82;73.05
66090;BME280;53113;45.602;11.904;2023-01-01T04:30:07;102868.42;;;10.82;73.02
66090;BME280;53113;45.602;11.904;2023-01-01T04:32:33;102869.52;;;10.81;73.02
66090;BME280;53113;45.602;11.904;2023-01-01T04:34:59;102865.13;;;10.81;73.01
66090;BME280;53113;45.602;11.904;2023-01-01T04:37:25;102858.55;;;10.81;72.98
66090;BME280;53113;45.602;11.904;2023-01-01T04:39:51;102852.27;;;10.83;73.01
66090;BME280;53113;45.602;11.904;2023-01-01T04:42:16;102853.20;;;10.86;72.93
66090;BME280;53113;45.602;11.904;2023-01-01T04:44:42;102852.94;;;10.88;72.99
66090;BME280;53113;45.602;11.904;2023-01-01T04:47:07;102852.16;;;10.89;72.90
66090;BME280;53113;45.602;11.904;2023-01-01T04:49:33;102854.30;;;10.89;72.91
66090;BME280;53113;45.602;11.904;2023-01-01T04:51:58;102854.64;;;10.90;72.88
66090;BME280;53113;45.602;11.904;2023-01-01T04:54:24;102855.19;;;10.89;72.94
66090;BME280;53113;45.602;11.904;2023-01-01T04:56:49;102855.08;;;10.88;72.89
66090;BME280;53113;45.602;11.904;2023-01-01T04:59:15;102855.88;;;10.86;72.98
66090;BME280;53113;45.602;11.904;2023-01-01T05:01:40;102864.75;;;10.85;72.92
66090;BME280;53113;45.602;11.904;2023-01-01T05:04:06;102867.56;;;10.86;72.89
66090;BME280;53113;45.602;11.904;2023-01-01T05:06:31;102875.84;;;10.87;72.88
66090;BME280;53113;45.602;11.904;2023-01-01T05:08:57;102871.38;;;10.88;72.90
66090;BME280;53113;45.602;11.904;2023-01-01T05:11:26;102872.30;;;10.87;72.93
66090;BME280;53113;45.602;11.904;2023-01-01T05:13:57;102879.22;;;10.87;72.95
66090;BME280;53113;45.602;11.904;2023-01-01T05:16:27;102877.83;;;10.86;72.92
66090;BME280;53113;45.602;11.904;2023-01-01T05:18:54;102874.72;;;10.84;72.91
66090;BME280;53113;45.602;11.904;2023-01-01T05:21:22;102876.52;;;10.83;73.00
66090;BME280;53113;45.602;11.904;2023-01-01T05:23:48;102872.63;;;10.83;73.00
66090;BME280;53113;45.602;11.904;2023-01-01T05:26:19;102870.81;;;10.84;73.11
66090;BME280;53113;45.602;11.904;2023-01-01T05:28:46;102871.71;;;10.88;72.95
66090;BME280;53113;45.602;11.904;2023-01-01T05:31:14;102871.24;;;10.91;73.00
66090;BME280;53113;45.602;11.904;2023-01-01T05:33:42;102873.52;;;10.92;72.91
66090;BME280;53113;45.602;11.904;2023-01-01T05:36:10;102871.06;;;10.91;72.98
66090;BME280;53113;45.602;11.904;2023-01-01T05:38:38;102874.48;;;10.90;72.99
66090;BME280;53113;45.602;11.904;2023-01-01T05:41:05;102873.66;;;10.89;72.96
66090;BME280;53113;45.602;11.904;2023-01-01T05:43:32;102876.07;;;10.86;72.89
66090;BME280;53113;45.602;11.904;2023-01-01T05:46:00;102879.16;;;10.84;72.99
66090;BME280;53113;45.602;11.904;2023-01-01T05:48:26;102880.70;;;10.81;72.94
66090;BME280;53113;45.602;11.904;2023-01-01T05:50:52;102878.39;;;10.81;72.89
66090;BME280;53113;45.602;11.904;2023-01-01T05:53:17;102878.70;;;10.82;72.89
66090;BME280;53113;45.602;11.904;2023-01-01T05:55:43;102878.30;;;10.83;72.86
66090;BME280;53113;45.602;11.904;2023-01-01T05:58:09;102880.80;;;10.83;72.75
66090;BME280;53113;45.602;11.904;2023-01-01T06:00:34;102880.46;;;10.82;72.89
66090;BME280;53113;45.602;11.904;2023-01-01T06:03:00;102877.69;;;10.81;72.84
66090;BME280;53113;45.602;11.904;2023-01-01T06:05:25;102881.30;;;10.79;72.89
66090;BME280;53113;45.602;11.904;2023-01-01T06:07:51;102879.46;;;10.77;72.99
66090;BME280;53113;45.602;11.904;2023-01-01T06:10:17;102882.70;;;10.76;73.06
66090;BME280;53113;45.602;11.904;2023-01-01T06:12:42;102877.44;;;10.75;72.96
66090;BME280;53113;45.602;11.904;2023-01-01T06:15:08;102879.00;;;10.75;73.10
66090;BME280;53113;45.602;11.904;2023-01-01T06:17:34;102881.90;;;10.78;73.11
66090;BME280;53113;45.602;11.904;2023-01-01T06:20:00;102884.52;;;10.79;73.03
66090;BME280;53113;45.602;11.904;2023-01-01T06:22:26;102878.65;;;10.80;73.08
66090;BME280;53113;45.602;11.904;2023-01-01T06:24:51;102881.64;;;10.80;73.10
66090;BME280;53113;45.602;11.904;2023-01-01T06:27:17;102883.64;;;10.79;73.22
66090;BME280;53113;45.602;11.904;2023-01-01T06:29:43;102884.88;;;10.78;73.23
66090;BME280;53113;45.602;11.904;2023-01-01T06:32:08;102886.33;;;10.78;73.20
66090;BME280;53113;45.602;11.904;2023-01-01T06:34:34;102881.92;;;10.78;73.24
66090;BME280;53113;45.602;11.904;2023-01-01T06:37:00;102883.30;;;10.78;73.23
66090;BME280;53113;45.602;11.904;2023-01-01T06:39:25;102877.73;;;10.80;73.09
66090;BME280;53113;45.602;11.904;2023-01-01T06:41:51;102879.55;;;10.83;73.14
66090;BME280;53113;45.602;11.904;2023-01-01T06:44:17;102883.06;;;10.84;73.14
66090;BME280;53113;45.602;11.904;2023-01-01T06:46:42;102880.39;;;10.84;73.12
66090;BME280;53113;45.602;11.904;2023-01-01T06:49:11;102886.04;;;10.85;73.17
66090;BME280;53113;45.602;11.904;2023-01-01T06:51:40;102891.21;;;10.84;73.16
66090;BME280;53113;45.602;11.904;2023-01-01T06:54:06;102890.66;;;10.84;73.13
66090;BME280;53113;45.602;11.904;2023-01-01T06:56:33;102891.30;;;10.82;73.10
66090;BME280;53113;45.602;11.904;2023-01-01T06:58:58;102896.32;;;10.80;73.09
66090;BME280;53113;45.602;11.904;2023-01-01T07:01:28;102891.80;;;10.83;73.17
66090;BME280;53113;45.602;11.904;2023-01-01T07:03:58;102890.27;;;10.85;73.18
66090;BME280;53113;45.602;11.904;2023-01-01T07:06:27;102891.27;;;10.87;73.13
66090;BME280;53113;45.602;11.904;2023-01-01T07:08:53;102891.23;;;10.88;73.22
66090;BME280;53113;45.602;11.904;2023-01-01T07:11:19;102895.30;;;10.88;73.28
66090;BME280;53113;45.602;11.904;2023-01-01T07:13:45;102891.94;;;10.88;73.25
66090;BME280;53113;45.602;11.904;2023-01-01T07:16:11;102894.98;;;10.87;73.28
66090;BME280;53113;45.602;11.904;2023-01-01T07:18:37;102893.71;;;10.88;73.36
66090;BME280;53113;45.602;11.904;2023-01-01T07:21:05;102899.80;;;10.91;73.35
66090;BME280;53113;45.602;11.904;2023-01-01T07:23:33;102902.89;;;10.93;73.25
66090;BME280;53113;45.602;11.904;2023-01-01T07:26:00;102902.67;;;10.93;73.23
66090;BME280;53113;45.602;11.904;2023-01-01T07:28:26;102906.20;;;10.94;73.25
66090;BME280;53113;45.602;11.904;2023-01-01T07:30:52;102906.21;;;10.94;73.38
66090;BME280;53113;45.602;11.904;2023-01-01T07:33:21;102911.91;;;10.93;73.30
66090;BME280;53113;45.602;11.904;2023-01-01T07:35:47;102917.56;;;10.93;73.33
66090;BME280;53113;45.602;11.904;2023-01-01T07:38:14;102920.02;;;10.94;73.37
66090;BME280;53113;45.602;11.904;2023-01-01T07:40:40;102923.79;;;10.97;73.36
66090;BME280;53113;45.602;11.904;2023-01-01T07:43:06;102925.02;;;11.02;73.32
66090;BME280;53113;45.602;11.904;2023-01-01T07:45:33;102930.93;;;11.04;73.42
66090;BME280;53113;45.602;11.904;2023-01-01T07:47:59;102930.46;;;11.08;73.50
66090;BME280;53113;45.602;11.904;2023-01-01T07:50:28;102930.06;;;11.08;73.45
66090;BME280;53113;45.602;11.904;2023-01-01T07:52:54;102928.10;;;11.08;73.43
66090;BME280;53113;45.602;11.904;2023-01-01T07:55:20;102930.73;;;11.09;73.49
66090;BME280;53113;45.602;11.904;2023-01-01T07:57:46;102933.66;;;11.11;73.56
66090;BME280;53113;45.602;11.904;2023-01-01T08:00:17;102928.20;;;11.14;73.51
66090;BME280;53113;45.602;11.904;2023-01-01T08:02:43;102926.55;;;11.20;73.57
66090;BME280;53113;45.602;11.904;2023-01-01T08:05:09;102926.20;;;11.24;73.55
66090;BME280;53113;45.602;11.904;2023-01-01T08:07:35;102928.66;;;11.29;73.54
66090;BME280;53113;45.602;11.904;2023-01-01T08:10:02;102929.21;;;11.32;73.54
66090;BME280;53113;45.602;11.904;2023-01-01T08:12:28;102923.21;;;11.35;73.60
66090;BME280;53113;45.602;11.904;2023-01-01T08:14:53;102923.29;;;11.37;73.62
66090;BME280;53113;45.602;11.904;2023-01-01T08:17:19;102923.52;;;11.40;73.65
66090;BME280;53113;45.602;11.904;2023-01-01T08:19:44;102922.52;;;11.43;73.62
66090;BME280;53113;45.602;11.904;2023-01-01T08:22:11;102918.86;;;11.45;73.68
66090;BME280;53113;45.602;11.904;2023-01-01T08:24:37;102917.69;;;11.52;73.61
66090;BME280;53113;45.602;11.904;2023-01-01T08:27:03;102918.42;;;11.59;73.57
66090;BME280;53113;45.602;11.904;2023-01-01T08:29:28;102914.28;;;11.68;73.43
66090;BME280;53113;45.602;11.904;2023-01-01T08:31:54;102911.25;;;11.76;73.53
66090;BME280;53113;45.602;11.904;2023-01-01T08:34:20;102911.65;;;11.83;73.47
66090;BME280;53113;45.602;11.904;2023-01-01T08:36:45;102914.40;;;11.89;73.63
66090;BME280;53113;45.602;11.904;2023-01-01T08:39:11;102921.02;;;11.96;73.62
66090;BME280;53113;45.602;11.904;2023-01-01T08:41:36;102923.39;;;12.02;73.55
66090;BME280;53113;45.602;11.904;2023-01-01T08:44:05;102923.19;;;12.06;73.35
66090;BME280;53113;45.602;11.904;2023-01-01T08:46:31;102922.30;;;12.10;73.16
66090;BME280;53113;45.602;11.904;2023-01-01T08:48:57;102923.94;;;12.13;73.20
66090;BME280;53113;45.602;11.904;2023-01-01T08:51:22;102925.45;;;12.15;73.01
66090;BME280;53113;45.602;11.904;2023-01-01T08:53:48;102924.50;;;12.16;72.89
66090;BME280;53113;45.602;11.904;2023-01-01T08:56:14;102922.09;;;12.18;72.70
66090;BME280;53113;45.602;11.904;2023-01-01T08:58:42;102924.67;;;12.23;72.64
66090;BME280;53113;45.602;11.904;2023-01-01T09:01:09;102920.02;;;12.28;72.65
66090;BME280;53113;45.602;11.904;2023-01-01T09:03:35;102918.93;;;12.32;72.62
66090;BME280;53113;45.602;11.904;2023-01-01T09:06:01;102920.53;;;12.36;72.51
66090;BME280;53113;45.602;11.904;2023-01-01T09:08:27;102928.23;;;12.39;72.47
66090;BME280;53113;45.602;11.904;2023-01-01T09:10:57;102925.42;;;12.41;72.56
66090;BME280;53113;45.602;11.904;2023-01-01T09:13:23;102928.48;;;12.44;72.61
66090;BME280;53113;45.602;11.904;2023-01-01T09:15:49;102934.35;;;12.48;72.56
66090;BME280;53113;45.602;11.904;2023-01-01T09:18:15;102936.91;;;12.50;72.46
66090;BME280;53113;45.602;11.904;2023-01-01T09:20:40;102938.05;;;12.52;72.37
66090;BME280;53113;45.602;11.904;2023-01-01T09:23:07;102940.91;;;12.56;72.34
66090;BME280;53113;45.602;11.904;2023-01-01T09:25:34;102945.08;;;12.61;72.32
66090;BME280;53113;45.602;11.904;2023-01-01T09:28:05;102944.42;;;12.67;72.30
66090;BME280;53113;45.602;11.904;2023-01-01T09:30:32;102946.48;;;12.72;72.17
66090;BME280;53113;45.602;11.904;2023-01-01T09:32:58;102944.69;;;12.76;72.08
66090;BME280;53113;45.602;11.904;2023-01-01T09:35:23;102944.83;;;12.80;72.02
66090;BME280;53113;45.602;11.904;2023-01-01T09:37:49;102945.19;;;12.84;72.04
66090;BME280;53113;45.602;11.904;2023-01-01T09:43:12;102944.69;;;12.90;71.80
66090;BME280;53113;45.602;11.904;2023-01-01T09:48:20;102947.82;;;12.95;71.58
66090;BME280;53113;45.602;11.904;2023-01-01T09:50:48;102945.63;;;13.00;71.43
66090;BME280;53113;45.602;11.904;2023-01-01T09:53:17;102946.07;;;13.05;71.37
66090;BME280;53113;45.602;11.904;2023-01-01T09:56:01;102947.61;;;13.10;71.19
66090;BME280;53113;45.602;11.904;2023-01-01T09:58:32;102945.77;;;13.14;71.04
66090;BME280;53113;45.602;11.904;2023-01-01T10:15:20;102914.36;;;13.27;70.70
66090;BME280;53113;45.602;11.904;2023-01-01T10:17:56;102909.84;;;13.29;70.60
66090;BME280;53113;45.602;11.904;2023-01-01T10:22:57;102905.59;;;13.35;70.56
66090;BME280;53113;45.602;11.904;2023-01-01T10:25:26;102904.98;;;13.40;70.43
66090;BME280;53113;45.602;11.904;2023-01-01T10:28:08;102901.89;;;13.45;70.26
66090;BME280;53113;45.602;11.904;2023-01-01T10:30:36;102899.17;;;13.49;70.04
66090;BME280;53113;45.602;11.904;2023-01-01T10:33:09;102898.00;;;13.50;69.98
66090;BME280;53113;45.602;11.904;2023-01-01T10:35:43;102898.65;;;13.52;69.83
66090;BME280;53113;45.602;11.904;2023-01-01T10:38:22;102898.46;;;13.52;69.76
66090;BME280;53113;45.602;11.904;2023-01-01T10:40:50;102899.52;;;13.52;69.70
66090;BME280;53113;45.602;11.904;2023-01-01T10:43:16;102898.65;;;13.52;69.73
66090;BME280;53113;45.602;11.904;2023-01-01T10:45:45;102898.11;;;13.52;69.65
66090;BME280;53113;45.602;11.904;2023-01-01T10:48:21;102899.56;;;13.51;69.55
66090;BME280;53113;45.602;11.904;2023-01-01T10:50:50;102896.17;;;13.51;69.52
66090;BME280;53113;45.602;11.904;2023-01-01T10:53:26;102888.17;;;13.51;69.64
66090;BME280;53113;45.602;11.904;2023-01-01T10:56:15;102886.42;;;13.54;69.75
66090;BME280;53113;45.602;11.904;2023-01-01T11:01:26;102881.67;;;13.66;69.89
66090;BME280;53113;45.602;11.904;2023-01-01T11:04:01;102877.89;;;13.73;69.98
66090;BME280;53113;45.602;11.904;2023-01-01T11:06:33;102874.09;;;13.81;70.09
66090;BME280;53113;45.602;11.904;2023-01-01T11:09:26;102873.61;;;13.90;70.22
66090;BME280;53113;45.602;11.904;2023-01-01T11:11:56;102865.36;;;14.00;70.31
66090;BME280;53113;45.602;11.904;2023-01-01T11:14:49;102861.27;;;14.10;70.30
66090;BME280;53113;45.602;11.904;2023-01-01T11:17:29;102859.51;;;14.19;69.98
66090;BME280;53113;45.602;11.904;2023-01-01T11:19:57;102853.96;;;14.25;69.70
66090;BME280;53113;45.602;11.904;2023-01-01T11:22:47;102852.92;;;14.31;69.52
66090;BME280;53113;45.602;11.904;2023-01-01T11:25:29;102851.00;;;14.36;69.33
66090;BME280;53113;45.602;11.904;2023-01-01T11:28:20;102849.13;;;14.41;69.28
66090;BME280;53113;45.602;11.904;2023-01-01T11:33:29;102839.00;;;14.53;68.97
66090;BME280;53113;45.602;11.904;2023-01-01T11:35:56;102835.95;;;14.60;68.69
66090;BME280;53113;45.602;11.904;2023-01-01T11:38:23;102833.66;;;14.68;68.81
66090;BME280;53113;45.602;11.904;2023-01-01T11:40:54;102835.82;;;14.77;68.78
66090;BME280;53113;45.602;11.904;2023-01-01T11:43:24;102832.55;;;14.84;68.54
66090;BME280;53113;45.602;11.904;2023-01-01T11:45:54;102829.50;;;14.90;68.07
66090;BME280;53113;45.602;11.904;2023-01-01T11:48:25;102829.80;;;14.99;68.00
66090;BME280;53113;45.602;11.904;2023-01-01T11:51:30;102823.16;;;15.09;67.70
66090;BME280;53113;45.602;11.904;2023-01-01T11:54:31;102819.32;;;15.19;67.59
66090;BME280;53113;45.602;11.904;2023-01-01T11:57:17;102821.70;;;15.27;67.23
66090;BME280;53113;45.602;11.904;2023-01-01T11:59:52;102818.98;;;15.33;66.94
66090;BME280;53113;45.602;11.904;2023-01-01T12:02:31;102814.04;;;15.38;66.98
66090;BME280;53113;45.602;11.904;2023-01-01T12:05:25;102808.98;;;15.45;67.06
66090;BME280;53113;45.602;11.904;2023-01-01T12:07:52;102810.74;;;15.53;66.85
66090;BME280;53113;45.602;11.904;2023-01-01T12:10:26;102808.81;;;15.61;66.79
66090;BME280;53113;45.602;11.904;2023-01-01T12:13:12;102808.48;;;15.69;66.79
66090;BME280;53113;45.602;11.904;2023-01-01T12:21:28;102803.89;;;15.88;65.80
66090;BME280;53113;45.602;11.904;2023-01-01T12:23:57;102803.81;;;15.87;65.35
66090;BME280;53113;45.602;11.904;2023-01-01T12:26:28;102803.20;;;15.82;65.08
66090;BME280;53113;45.602;11.904;2023-01-01T12:41:12;102795.51;;;15.52;64.55
66090;BME280;53113;45.602;11.904;2023-01-01T12:49:29;102785.52;;;15.35;64.85
66090;BME280;53113;45.602;11.904;2023-01-01T12:55:48;102779.48;;;15.35;65.17
66090;BME280;53113;45.602;11.904;2023-01-01T12:57:46;102784.16;;;15.39;65.35
66090;BME280;53113;45.602;11.904;2023-01-01T13:00:15;102783.75;;;15.43;65.46
66090;BME280;53113;45.602;11.904;2023-01-01T13:03:17;102777.21;;;15.47;65.22
66090;BME280;53113;45.602;11.904;2023-01-01T13:05:47;102770.85;;;15.57;65.16
66090;BME280;53113;45.602;11.904;2023-01-01T13:08:15;102773.05;;;15.64;65.00
66090;BME280;53113;45.602;11.904;2023-01-01T13:10:43;102774.27;;;15.71;64.86
66090;BME280;53113;45.602;11.904;2023-01-01T13:13:11;102777.58;;;15.76;64.69
66090;BME280;53113;45.602;11.904;2023-01-01T13:18:19;102778.12;;;15.78;64.49
66090;BME280;53113;45.602;11.904;2023-01-01T13:20:54;102777.98;;;15.77;64.33
66090;BME280;53113;45.602;11.904;2023-01-01T13:45:37;102789.38;;;15.30;64.31
66090;BME280;53113;45.602;11.904;2023-01-01T14:02:13;102787.89;;;14.99;64.79
66090;BME280;53113;45.602;11.904;2023-01-01T14:07:45;102790.28;;;14.96;64.92
66090;BME280;53113;45.602;11.904;2023-01-01T14:12:39;102799.37;;;14.93;65.10
66090;BME280;53113;45.602;11.904;2023-01-01T14:15:28;102800.58;;;14.90;65.05
66090;BME280;53113;45.602;11.904;2023-01-01T14:17:56;102799.34;;;14.87;65.18
66090;BME280;53113;45.602;11.904;2023-01-01T14:20:44;102802.65;;;14.85;65.24
66090;BME280;53113;45.602;11.904;2023-01-01T14:25:51;102798.80;;;14.79;65.24
66090;BME280;53113;45.602;11.904;2023-01-01T14:28:28;102794.07;;;14.74;65.30
66090;BME280;53113;45.602;11.904;2023-01-01T14:30:56;102802.91;;;14.70;65.28
66090;BME280;53113;45.602;11.904;2023-01-01T14:33:32;102801.58;;;14.65;65.40
66090;BME280;53113;45.602;11.904;2023-01-01T14:36:00;102798.36;;;14.59;65.53
66090;BME280;53113;45.602;11.904;2023-01-01T14:38:35;102802.14;;;14.56;65.66
66090;BME280;53113;45.602;11.904;2023-01-01T14:43:43;102808.73;;;14.53;65.82
66090;BME280;53113;45.602;11.904;2023-01-01T14:46:13;102808.84;;;14.54;65.88
66090;BME280;53113;45.602;11.904;2023-01-01T14:48:49;102810.09;;;14.54;65.89
66090;BME280;53113;45.602;11.904;2023-01-01T14:51:24;102807.73;;;14.51;66.06
66090;BME280;53113;45.602;11.904;2023-01-01T14:53:51;102806.53;;;14.47;66.16
66090;BME280;53113;45.602;11.904;2023-01-01T14:56:25;102807.52;;;14.45;66.13
66090;BME280;53113;45.602;11.904;2023-01-01T14:58:52;102812.04;;;14.41;66.17
66090;BME280;53113;45.602;11.904;2023-01-01T15:01:25;102816.31;;;14.38;66.22
66090;BME280;53113;45.602;11.904;2023-01-01T15:03:56;102813.73;;;14.34;66.30
66090;BME280;53113;45.602;11.904;2023-01-01T15:06:23;102816.80;;;14.31;66.32
66090;BME280;53113;45.602;11.904;2023-01-01T15:08:49;102820.09;;;14.26;66.39
66090;BME280;53113;45.602;11.904;2023-01-01T15:11:16;102818.52;;;14.22;66.48
66090;BME280;53113;45.602;11.904;2023-01-01T15:13:55;102817.54;;;14.17;66.48